地図

経路データ

SID SEASON NUMBER BASIN SUBBASIN NAME ISO_TIME NATURE LAT LON WMO_WIND WMO_PRES WMO_AGENCY TRACK_TYPE DIST2LAND LANDFALL IFLAG USA_AGENCY USA_ATCF_ID USA_LAT USA_LON USA_RECORD USA_STATUS USA_WIND USA_PRES USA_SSHS USA_R34_NE USA_R34_SE USA_R34_SW USA_R34_NW USA_R50_NE USA_R50_SE USA_R50_SW USA_R50_NW USA_R64_NE USA_R64_SE USA_R64_SW USA_R64_NW USA_POCI USA_ROCI USA_RMW USA_EYE TOKYO_LAT TOKYO_LON TOKYO_GRADE TOKYO_WIND TOKYO_PRES TOKYO_R50_DIR TOKYO_R50_LONG TOKYO_R50_SHORT TOKYO_R30_DIR TOKYO_R30_LONG TOKYO_R30_SHORT TOKYO_LAND CMA_LAT CMA_LON CMA_CAT CMA_WIND CMA_PRES HKO_LAT HKO_LON HKO_CAT HKO_WIND HKO_PRES NEWDELHI_LAT NEWDELHI_LON NEWDELHI_GRADE NEWDELHI_WIND NEWDELHI_PRES NEWDELHI_CI NEWDELHI_DP NEWDELHI_POCI REUNION_LAT REUNION_LON REUNION_TYPE REUNION_WIND REUNION_PRES REUNION_TNUM REUNION_CI REUNION_RMW REUNION_R34_NE REUNION_R34_SE REUNION_R34_SW REUNION_R34_NW REUNION_R50_NE REUNION_R50_SE REUNION_R50_SW REUNION_R50_NW REUNION_R64_NE REUNION_R64_SE REUNION_R64_SW REUNION_R64_NW BOM_LAT BOM_LON BOM_TYPE BOM_WIND BOM_PRES BOM_TNUM BOM_CI BOM_RMW BOM_R34_NE BOM_R34_SE BOM_R34_SW BOM_R34_NW BOM_R50_NE BOM_R50_SE BOM_R50_SW BOM_R50_NW BOM_R64_NE BOM_R64_SE BOM_R64_SW BOM_R64_NW BOM_ROCI BOM_POCI BOM_EYE BOM_POS_METHOD BOM_PRES_METHOD NADI_LAT NADI_LON NADI_CAT NADI_WIND NADI_PRES WELLINGTON_LAT WELLINGTON_LON WELLINGTON_WIND WELLINGTON_PRES DS824_LAT DS824_LON DS824_STAGE DS824_WIND DS824_PRES TD9636_LAT TD9636_LON TD9636_STAGE TD9636_WIND TD9636_PRES TD9635_LAT TD9635_LON TD9635_WIND TD9635_PRES TD9635_ROCI NEUMANN_LAT NEUMANN_LON NEUMANN_CLASS NEUMANN_WIND NEUMANN_PRES MLC_LAT MLC_LON MLC_CLASS MLC_WIND MLC_PRES USA_GUST BOM_GUST BOM_GUST_PER REUNION_GUST REUNION_GUST_PER USA_SEAHGT USA_SEARAD_NE USA_SEARAD_SE USA_SEARAD_SW USA_SEARAD_NW STORM_SPEED STORM_DIR
1967268N12333 1967 109 NA NA NOT_NAMED 1967-09-25 00:00:00 TS 12.0000 -27.0000 25 hurdat_atl main 1071 1071 O_____________ hurdat_atl AL161967 12.0000 -27.0000 TD 25 -1 15 270
1967268N12333 1967 109 NA NA NOT_NAMED 1967-09-25 03:00:00 TS 12.0004 -27.7500 main 1155 1155 P_____________ AL161967 12.0004 -27.7500 TD 25 -1 15 270
1967268N12333 1967 109 NA NA NOT_NAMED 1967-09-25 06:00:00 TS 12.0000 -28.5000 25 hurdat_atl main 1228 1228 O_____________ hurdat_atl AL161967 12.0000 -28.5000 TD 25 -1 15 270
1967268N12333 1967 109 NA NA NOT_NAMED 1967-09-25 09:00:00 TS 11.9998 -29.2500 main 1301 1312 P_____________ AL161967 11.9998 -29.2500 TD 27 -1 15 270
1967268N12333 1967 109 NA NA NOT_NAMED 1967-09-25 12:00:00 TS 12.0000 -30.0000 30 hurdat_atl main 1386 1386 O_____________ hurdat_atl AL161967 12.0000 -30.0000 TD 30 -1 15 270
1967268N12333 1967 109 NA NA NOT_NAMED 1967-09-25 15:00:00 TS 11.9998 -30.7500 main 1460 1470 P_____________ AL161967 11.9998 -30.7500 TD 30 -1 15 270
1967268N12333 1967 109 NA NA NOT_NAMED 1967-09-25 18:00:00 TS 12.0000 -31.5000 30 hurdat_atl main 1545 1545 O_____________ hurdat_atl AL161967 12.0000 -31.5000 TD 30 -1 15 270
1967268N12333 1967 109 NA NA NOT_NAMED 1967-09-25 21:00:00 TS 11.9998 -32.2500 main 1619 1630 P_____________ AL161967 11.9998 -32.2500 TD 30 -1 15 270
1967268N12333 1967 109 NA NA NOT_NAMED 1967-09-26 00:00:00 TS 12.0000 -33.0000 30 hurdat_atl main 1704 1704 O_____________ hurdat_atl AL161967 12.0000 -33.0000 TD 30 -1 15 270
1967268N12333 1967 109 NA NA NOT_NAMED 1967-09-26 03:00:00 TS 12.0000 -33.7725 main 1789 1769 P_____________ AL161967 12.0000 -33.7725 TD 30 -1 15 270
1967268N12333 1967 109 NA NA NOT_NAMED 1967-09-26 06:00:00 TS 12.0000 -34.5000 30 hurdat_atl main 1769 1748 O_____________ hurdat_atl AL161967 12.0000 -34.5000 TD 30 -1 14 270
1967268N12333 1967 109 NA NA NOT_NAMED 1967-09-26 09:00:00 TS 11.9999 -35.1525 main 1745 1729 P_____________ AL161967 11.9999 -35.1525 TD 30 -1 12 270
1967268N12333 1967 109 NA NA NOT_NAMED 1967-09-26 12:00:00 TS 12.0000 -35.7000 30 hurdat_atl main 1729 1718 O_____________ hurdat_atl AL161967 12.0000 -35.7000 TD 30 -1 10 270
1967268N12333 1967 109 NA NA NOT_NAMED 1967-09-26 15:00:00 TS 11.9999 -36.1525 main 1716 1708 P_____________ AL161967 11.9999 -36.1525 TD 30 -1 8 270
1967268N12333 1967 109 NA NA NOT_NAMED 1967-09-26 18:00:00 TS 12.0000 -36.5000 30 hurdat_atl main 1708 1702 O_____________ hurdat_atl AL161967 12.0000 -36.5000 TD 30 -1 6 270
1967268N12333 1967 109 NA NA NOT_NAMED 1967-09-26 21:00:00 TS 11.9999 -36.7725 main 1702 1697 P_____________ AL161967 11.9999 -36.7725 TD 32 -1 5 270
1967268N12333 1967 109 NA NA NOT_NAMED 1967-09-27 00:00:00 TS 12.0000 -37.0000 35 hurdat_atl main 1697 1694 O_____________ hurdat_atl AL161967 12.0000 -37.0000 TS 35 0 5 270
1967268N12333 1967 109 NA NA NOT_NAMED 1967-09-27 03:00:00 TS 12.0000 -37.2500 main 1694 1688 P_____________ AL161967 12.0000 -37.2500 TS 35 0 5 270
1967268N12333 1967 109 NA NA NOT_NAMED 1967-09-27 06:00:00 TS 12.0000 -37.5000 35 hurdat_atl main 1688 1685 O_____________ hurdat_atl AL161967 12.0000 -37.5000 TS 35 0 5 270
1967268N12333 1967 109 NA NA NOT_NAMED 1967-09-27 09:00:00 TS 12.0000 -37.7425 main 1685 1681 P_____________ AL161967 12.0000 -37.7425 TS 35 0 5 270
1967268N12333 1967 109 NA NA NOT_NAMED 1967-09-27 12:00:00 TS 12.0000 -38.0000 35 hurdat_atl main 1681 1670 O_____________ hurdat_atl AL161967 12.0000 -38.0000 TS 35 0 5 268
1967268N12333 1967 109 NA NA NOT_NAMED 1967-09-27 15:00:00 TS 11.9850 -38.2925 main 1670 1642 P_____________ AL161967 11.9850 -38.2925 TS 35 0 6 270
1967268N12333 1967 109 NA NA NOT_NAMED 1967-09-27 18:00:00 TS 12.0000 -38.6000 35 hurdat_atl main 1642 1620 O_____________ hurdat_atl AL161967 12.0000 -38.6000 TS 35 0 6 279
1967268N12333 1967 109 NA NA NOT_NAMED 1967-09-27 21:00:00 TS 12.0850 -38.9075 main 1620 1598 P_____________ AL161967 12.0850 -38.9075 TS 37 0 6 289
1967268N12333 1967 109 NA NA NOT_NAMED 1967-09-28 00:00:00 TS 12.2000 -39.2000 40 hurdat_atl main 1598 1577 O_____________ hurdat_atl AL161967 12.2000 -39.2000 TS 40 0 6 291
1967268N12333 1967 109 NA NA NOT_NAMED 1967-09-28 03:00:00 TS 12.2925 -39.4725 main 1577 1565 P_____________ AL161967 12.2925 -39.4725 TS 40 0 5 292
1967268N12333 1967 109 NA NA NOT_NAMED 1967-09-28 06:00:00 TS 12.4000 -39.7000 40 hurdat_atl main 1565 1554 O_____________ hurdat_atl AL161967 12.4000 -39.7000 TS 40 0 5 303
1967268N12333 1967 109 NA NA NOT_NAMED 1967-09-28 09:00:00 TS 12.5425 -39.8725 main 1554 1552 P_____________ AL161967 12.5425 -39.8725 TS 40 0 4 316
1967268N12333 1967 109 NA NA NOT_NAMED 1967-09-28 12:00:00 TS 12.7000 -40.0000 40 hurdat_atl main 1558 1556 O_____________ hurdat_atl AL161967 12.7000 -40.0000 TS 40 0 4 322
1967268N12333 1967 109 NA NA NOT_NAMED 1967-09-28 15:00:00 TS 12.8500 -40.1150 main 1556 1554 P_____________ AL161967 12.8500 -40.1150 TS 40 0 4 327
1967268N12333 1967 109 NA NA NOT_NAMED 1967-09-28 18:00:00 TS 13.0000 -40.2000 40 hurdat_atl main 1561 1561 O_____________ hurdat_atl AL161967 13.0000 -40.2000 TS 40 0 3 336
1967268N12333 1967 109 NA NA NOT_NAMED 1967-09-28 21:00:00 TS 13.1425 -40.2500 main 1559 1559 P_____________ AL161967 13.1425 -40.2500 TS 37 0 3 343
1967268N12333 1967 109 NA NA NOT_NAMED 1967-09-29 00:00:00 TS 13.3000 -40.3000 35 hurdat_atl main 1573 1572 O_____________ hurdat_atl AL161967 13.3000 -40.3000 TS 35 0 4 339
1967268N12333 1967 109 NA NA NOT_NAMED 1967-09-29 03:00:00 TS 13.4925 -40.3925 main 1579 1578 P_____________ AL161967 13.4925 -40.3925 TS 35 0 4 334
1967268N12333 1967 109 NA NA NOT_NAMED 1967-09-29 06:00:00 TS 13.7000 -40.5000 35 hurdat_atl main 1585 1584 O_____________ hurdat_atl AL161967 13.7000 -40.5000 TS 35 0 5 335
1967268N12333 1967 109 NA NA NOT_NAMED 1967-09-29 09:00:00 TS 13.9000 -40.5925 main 1592 1591 P_____________ AL161967 13.9000 -40.5925 TS 35 0 4 334
1967268N12333 1967 109 NA NA NOT_NAMED 1967-09-29 12:00:00 TS 14.1000 -40.7000 35 hurdat_atl main 1599 1598 O_____________ hurdat_atl AL161967 14.1000 -40.7000 TS 35 0 5 330
1967268N12333 1967 109 NA NA NOT_NAMED 1967-09-29 15:00:00 TS 14.3000 -40.8350 main 1606 1598 P_____________ AL161967 14.3000 -40.8350 TS 35 0 5 324
1967268N12333 1967 109 NA NA NOT_NAMED 1967-09-29 18:00:00 TS 14.5000 -41.0000 35 1004 hurdat_atl main 1606 1606 O_____________ hurdat_atl AL161967 14.5000 -41.0000 TS 35 1004 0 5 319
1967268N12333 1967 109 NA NA NOT_NAMED 1967-09-29 21:00:00 TS 14.6925 -41.1925 main 1606 1606 P_____________ AL161967 14.6925 -41.1925 TS 32 -1 6 316
1967268N12333 1967 109 NA NA NOT_NAMED 1967-09-30 00:00:00 TS 14.9000 -41.4000 30 hurdat_atl main 1608 1608 O_____________ hurdat_atl AL161967 14.9000 -41.4000 TD 30 -1 6 319
1967268N12333 1967 109 NA NA NOT_NAMED 1967-09-30 03:00:00 TS 15.1500 -41.6075 main 1618 1609 P_____________ AL161967 15.1500 -41.6075 TD 30 -1 6 322
1967268N12333 1967 109 NA NA NOT_NAMED 1967-09-30 06:00:00 TS 15.4000 -41.8000 30 hurdat_atl main 1620 1620 O_____________ hurdat_atl AL161967 15.4000 -41.8000 TD 30 -1 6 325
1967268N12333 1967 109 NA NA NOT_NAMED 1967-09-30 09:00:00 TS 15.6150 -41.9501 main 1623 1623 P_____________ AL161967 15.6150 -41.9501 TD 27 -1 5 324
1967268N12333 1967 109 NA NA NOT_NAMED 1967-09-30 12:00:00 TS 15.8000 -42.1000 25 hurdat_atl main 1634 1629 O_____________ hurdat_atl AL161967 15.8000 -42.1000 TD 25 -1 5 317
1967268N12333 1967 109 NA NA NOT_NAMED 1967-09-30 15:00:00 TS 15.9650 -42.2850 main 1638 1632 P_____________ AL161967 15.9650 -42.2850 TD 25 -1 5 308
1967268N12333 1967 109 NA NA NOT_NAMED 1967-09-30 18:00:00 TS 16.1000 -42.5000 25 hurdat_atl main 1634 1628 O_____________ hurdat_atl AL161967 16.1000 -42.5000 TD 25 -1 5 300
1967268N12333 1967 109 NA NA NOT_NAMED 1967-09-30 21:00:00 TS 16.2150 -42.7425 main 1630 1621 P_____________ AL161967 16.2150 -42.7425 TD 25 -1 5 293
1967268N12333 1967 109 NA NA NOT_NAMED 1967-10-01 00:00:00 TS 16.3000 -43.0000 25 hurdat_atl main 1621 1609 O_____________ hurdat_atl AL161967 16.3000 -43.0000 TD 25 -1 5 286
1967268N12333 1967 109 NA NA NOT_NAMED 1967-10-01 03:00:00 TS 16.3575 -43.2500 main 1612 1599 P_____________ AL161967 16.3575 -43.2500 TD 25 -1 5 282
1967268N12333 1967 109 NA NA NOT_NAMED 1967-10-01 06:00:00 TS 16.4000 -43.5000 25 hurdat_atl main 1599 1586 O_____________ hurdat_atl AL161967 16.4000 -43.5000 TD 25 -1 5 281
1967268N12333 1967 109 NA NA NOT_NAMED 1967-10-01 09:00:00 TS 16.4476 -43.7500 main 1586 1575 P_____________ AL161967 16.4476 -43.7500 TD 25 -1 5 282
1967268N12333 1967 109 NA NA NOT_NAMED 1967-10-01 12:00:00 TS 16.5000 -44.0000 25 hurdat_atl main 1575 O_____________ hurdat_atl AL161967 16.5000 -44.0000 TD 25 -1 5 282

IBTrACS Databaseについて

本データベースは、米国NOAAが公開する1842年以降の世界の熱帯低気圧のベストトラックデータアーカイブInternational Best Track Archive for Climate Stewardship (IBTrACS)を、ウェブで閲覧しやすい形式に変換したものです。

最終更新日:2022-05-24